sensor_id;sensor_type;location;lat;lon;timestamp;temperature;humidity
35043;DHT22;21230;51.170;17.024;2022-08-02T00:01:26;17.80;99.90
35043;DHT22;21230;51.170;17.024;2022-08-02T00:03:52;17.90;99.90
35043;DHT22;21230;51.170;17.024;2022-08-02T00:06:18;17.80;99.90
35043;DHT22;21230;51.170;17.024;2022-08-02T00:08:43;17.80;99.90
35043;DHT22;21230;51.170;17.024;2022-08-02T00:11:09;17.80;99.90
35043;DHT22;21230;51.170;17.024;2022-08-02T00:13:34;17.80;99.90
35043;DHT22;21230;51.170;17.024;2022-08-02T00:16:00;17.80;99.90
35043;DHT22;21230;51.170;17.024;2022-08-02T00:18:26;17.80;99.90
35043;DHT22;21230;51.170;17.024;2022-08-02T00:20:51;17.80;99.90
35043;DHT22;21230;51.170;17.024;2022-08-02T00:23:17;17.80;99.90
35043;DHT22;21230;51.170;17.024;2022-08-02T00:25:43;17.80;99.90
35043;DHT22;21230;51.170;17.024;2022-08-02T00:28:09;17.80;99.90
35043;DHT22;21230;51.170;17.024;2022-08-02T00:30:35;17.80;99.90
35043;DHT22;21230;51.170;17.024;2022-08-02T00:33:01;17.80;99.90
35043;DHT22;21230;51.170;17.024;2022-08-02T00:35:27;17.90;99.90
35043;DHT22;21230;51.170;17.024;2022-08-02T00:37:53;17.90;99.90
35043;DHT22;21230;51.170;17.024;2022-08-02T00:40:20;17.90;99.90
35043;DHT22;21230;51.170;17.024;2022-08-02T00:42:46;18.00;99.90
35043;DHT22;21230;51.170;17.024;2022-08-02T00:45:12;18.00;99.90
35043;DHT22;21230;51.170;17.024;2022-08-02T00:47:37;17.90;99.90
35043;DHT22;21230;51.170;17.024;2022-08-02T00:50:03;18.00;99.90
35043;DHT22;21230;51.170;17.024;2022-08-02T00:52:29;18.00;99.90
35043;DHT22;21230;51.170;17.024;2022-08-02T00:54:56;18.00;99.90
35043;DHT22;21230;51.170;17.024;2022-08-02T00:57:22;17.90;99.90
35043;DHT22;21230;51.170;17.024;2022-08-02T00:59:47;18.00;99.90
35043;DHT22;21230;51.170;17.024;2022-08-02T01:02:13;17.90;99.90
35043;DHT22;21230;51.170;17.024;2022-08-02T01:04:38;17.90;99.90
35043;DHT22;21230;51.170;17.024;2022-08-02T01:07:04;18.00;99.90
35043;DHT22;21230;51.170;17.024;2022-08-02T01:09:30;17.90;99.90
35043;DHT22;21230;51.170;17.024;2022-08-02T01:11:56;17.90;99.90
35043;DHT22;21230;51.170;17.024;2022-08-02T01:14:22;17.90;99.90
35043;DHT22;21230;51.170;17.024;2022-08-02T01:16:54;17.80;99.90
35043;DHT22;21230;51.170;17.024;2022-08-02T01:27:10;17.80;99.90
35043;DHT22;21230;51.170;17.024;2022-08-02T01:29:40;17.80;99.90
35043;DHT22;21230;51.170;17.024;2022-08-02T01:32:15;17.80;99.90
35043;DHT22;21230;51.170;17.024;2022-08-02T01:34:42;17.80;99.90
35043;DHT22;21230;51.170;17.024;2022-08-02T01:37:20;17.80;99.90
35043;DHT22;21230;51.170;17.024;2022-08-02T01:39:47;17.80;99.90
35043;DHT22;21230;51.170;17.024;2022-08-02T01:42:15;17.80;99.90
35043;DHT22;21230;51.170;17.024;2022-08-02T01:44:42;17.70;99.90
35043;DHT22;21230;51.170;17.024;2022-08-02T01:47:13;17.60;99.90
35043;DHT22;21230;51.170;17.024;2022-08-02T01:49:40;17.60;99.90
35043;DHT22;21230;51.170;17.024;2022-08-02T01:52:07;17.50;99.90
35043;DHT22;21230;51.170;17.024;2022-08-02T01:55:00;17.60;99.90
35043;DHT22;21230;51.170;17.024;2022-08-02T01:57:26;17.50;99.90
35043;DHT22;21230;51.170;17.024;2022-08-02T01:59:54;17.50;99.90
35043;DHT22;21230;51.170;17.024;2022-08-02T02:02:20;17.50;99.90
35043;DHT22;21230;51.170;17.024;2022-08-02T02:04:47;17.50;99.90
35043;DHT22;21230;51.170;17.024;2022-08-02T02:07:14;17.40;99.90
35043;DHT22;21230;51.170;17.024;2022-08-02T02:09:42;17.40;99.90
35043;DHT22;21230;51.170;17.024;2022-08-02T02:12:07;17.40;99.90
35043;DHT22;21230;51.170;17.024;2022-08-02T02:14:33;17.40;99.90
35043;DHT22;21230;51.170;17.024;2022-08-02T02:17:00;17.40;99.90
35043;DHT22;21230;51.170;17.024;2022-08-02T02:19:26;17.40;99.90
35043;DHT22;21230;51.170;17.024;2022-08-02T02:21:52;17.40;99.90
35043;DHT22;21230;51.170;17.024;2022-08-02T02:24:18;17.40;99.90
35043;DHT22;21230;51.170;17.024;2022-08-02T02:26:44;17.40;99.90
35043;DHT22;21230;51.170;17.024;2022-08-02T02:29:10;17.30;99.90
35043;DHT22;21230;51.170;17.024;2022-08-02T02:31:37;17.30;99.90
35043;DHT22;21230;51.170;17.024;2022-08-02T02:34:11;17.20;99.90
35043;DHT22;21230;51.170;17.024;2022-08-02T02:36:41;17.10;99.90
35043;DHT22;21230;51.170;17.024;2022-08-02T02:39:10;17.00;99.90
35043;DHT22;21230;51.170;17.024;2022-08-02T02:41:36;16.90;99.90
35043;DHT22;21230;51.170;17.024;2022-08-02T02:44:02;16.80;99.90
35043;DHT22;21230;51.170;17.024;2022-08-02T02:46:29;16.80;99.90
35043;DHT22;21230;51.170;17.024;2022-08-02T02:48:55;16.80;99.90
35043;DHT22;21230;51.170;17.024;2022-08-02T02:51:21;16.80;99.90
35043;DHT22;21230;51.170;17.024;2022-08-02T02:53:47;16.70;99.90
35043;DHT22;21230;51.170;17.024;2022-08-02T02:56:15;16.70;99.90
35043;DHT22;21230;51.170;17.024;2022-08-02T02:58:41;16.70;99.90
35043;DHT22;21230;51.170;17.024;2022-08-02T03:01:07;16.60;99.90
35043;DHT22;21230;51.170;17.024;2022-08-02T03:03:52;16.60;99.90
35043;DHT22;21230;51.170;17.024;2022-08-02T03:06:18;16.50;99.90
35043;DHT22;21230;51.170;17.024;2022-08-02T03:08:43;16.50;99.90
35043;DHT22;21230;51.170;17.024;2022-08-02T03:11:09;16.50;99.90
35043;DHT22;21230;51.170;17.024;2022-08-02T03:13:35;16.50;99.90
35043;DHT22;21230;51.170;17.024;2022-08-02T03:16:01;16.50;99.90
35043;DHT22;21230;51.170;17.024;2022-08-02T03:18:40;16.50;99.90
35043;DHT22;21230;51.170;17.024;2022-08-02T03:21:07;16.50;99.90
35043;DHT22;21230;51.170;17.024;2022-08-02T03:23:33;16.50;99.90
35043;DHT22;21230;51.170;17.024;2022-08-02T03:25:59;16.50;99.90
35043;DHT22;21230;51.170;17.024;2022-08-02T03:28:25;16.50;99.90
35043;DHT22;21230;51.170;17.024;2022-08-02T03:30:51;16.40;99.90
35043;DHT22;21230;51.170;17.024;2022-08-02T03:33:17;16.40;99.90
35043;DHT22;21230;51.170;17.024;2022-08-02T03:38:33;16.30;99.90
35043;DHT22;21230;51.170;17.024;2022-08-02T03:40:59;16.40;99.90
35043;DHT22;21230;51.170;17.024;2022-08-02T03:43:25;16.40;99.90
35043;DHT22;21230;51.170;17.024;2022-08-02T03:45:51;16.30;99.90
35043;DHT22;21230;51.170;17.024;2022-08-02T03:48:18;16.30;99.90
35043;DHT22;21230;51.170;17.024;2022-08-02T03:50:45;16.30;99.90
35043;DHT22;21230;51.170;17.024;2022-08-02T03:53:13;16.40;99.90
35043;DHT22;21230;51.170;17.024;2022-08-02T03:55:38;16.40;99.90
35043;DHT22;21230;51.170;17.024;2022-08-02T03:58:04;16.40;99.90
35043;DHT22;21230;51.170;17.024;2022-08-02T04:00:30;16.40;99.90
35043;DHT22;21230;51.170;17.024;2022-08-02T04:02:59;16.40;99.90
35043;DHT22;21230;51.170;17.024;2022-08-02T04:05:25;16.40;99.90
35043;DHT22;21230;51.170;17.024;2022-08-02T04:07:51;16.30;99.90
35043;DHT22;21230;51.170;17.024;2022-08-02T04:10:17;16.40;99.90
35043;DHT22;21230;51.170;17.024;2022-08-02T04:12:42;16.40;99.90
35043;DHT22;21230;51.170;17.024;2022-08-02T04:15:09;16.40;99.90
35043;DHT22;21230;51.170;17.024;2022-08-02T04:17:37;16.40;99.90
35043;DHT22;21230;51.170;17.024;2022-08-02T04:20:11;16.40;99.90
35043;DHT22;21230;51.170;17.024;2022-08-02T04:22:39;16.60;99.90
35043;DHT22;21230;51.170;17.024;2022-08-02T04:25:06;16.60;99.90
35043;DHT22;21230;51.170;17.024;2022-08-02T04:27:33;16.60;99.90
35043;DHT22;21230;51.170;17.024;2022-08-02T04:30:01;16.70;99.90
35043;DHT22;21230;51.170;17.024;2022-08-02T04:32:27;16.70;99.90
35043;DHT22;21230;51.170;17.024;2022-08-02T04:34:53;16.70;99.90
35043;DHT22;21230;51.170;17.024;2022-08-02T04:37:19;16.70;99.90
35043;DHT22;21230;51.170;17.024;2022-08-02T04:39:48;16.80;99.90
35043;DHT22;21230;51.170;17.024;2022-08-02T04:42:23;16.80;99.90
35043;DHT22;21230;51.170;17.024;2022-08-02T04:44:49;16.80;99.90
35043;DHT22;21230;51.170;17.024;2022-08-02T04:47:15;16.90;99.90
35043;DHT22;21230;51.170;17.024;2022-08-02T04:49:41;16.90;99.90
35043;DHT22;21230;51.170;17.024;2022-08-02T04:52:10;17.00;99.90
35043;DHT22;21230;51.170;17.024;2022-08-02T04:54:38;17.00;99.90
35043;DHT22;21230;51.170;17.024;2022-08-02T04:57:04;17.10;99.90
35043;DHT22;21230;51.170;17.024;2022-08-02T04:59:49;17.10;99.90
35043;DHT22;21230;51.170;17.024;2022-08-02T05:02:18;17.00;99.90
35043;DHT22;21230;51.170;17.024;2022-08-02T05:04:44;17.10;99.90
35043;DHT22;21230;51.170;17.024;2022-08-02T05:07:09;17.10;99.90
35043;DHT22;21230;51.170;17.024;2022-08-02T05:09:35;17.10;99.90
35043;DHT22;21230;51.170;17.024;2022-08-02T05:12:00;17.20;99.90
35043;DHT22;21230;51.170;17.024;2022-08-02T05:14:26;17.20;99.90
35043;DHT22;21230;51.170;17.024;2022-08-02T05:16:52;17.30;99.90
35043;DHT22;21230;51.170;17.024;2022-08-02T05:19:17;17.40;99.90
35043;DHT22;21230;51.170;17.024;2022-08-02T05:21:43;17.50;99.90
35043;DHT22;21230;51.170;17.024;2022-08-02T05:24:08;17.60;99.90
35043;DHT22;21230;51.170;17.024;2022-08-02T05:26:34;17.70;99.90
35043;DHT22;21230;51.170;17.024;2022-08-02T05:29:00;17.80;99.90
35043;DHT22;21230;51.170;17.024;2022-08-02T05:31:25;17.90;99.90
35043;DHT22;21230;51.170;17.024;2022-08-02T05:33:51;17.90;99.90
35043;DHT22;21230;51.170;17.024;2022-08-02T05:36:17;18.00;99.90
35043;DHT22;21230;51.170;17.024;2022-08-02T05:38:42;18.10;99.90
35043;DHT22;21230;51.170;17.024;2022-08-02T05:41:08;18.10;99.90
35043;DHT22;21230;51.170;17.024;2022-08-02T05:43:33;18.20;99.90
35043;DHT22;21230;51.170;17.024;2022-08-02T05:45:59;18.30;99.90
35043;DHT22;21230;51.170;17.024;2022-08-02T05:48:25;18.40;99.90
35043;DHT22;21230;51.170;17.024;2022-08-02T05:50:53;18.50;99.90
35043;DHT22;21230;51.170;17.024;2022-08-02T05:53:30;18.60;99.90
35043;DHT22;21230;51.170;17.024;2022-08-02T06:01:13;18.80;99.90
35043;DHT22;21230;51.170;17.024;2022-08-02T06:03:46;18.80;99.90
35043;DHT22;21230;51.170;17.024;2022-08-02T06:06:15;18.90;99.90
35043;DHT22;21230;51.170;17.024;2022-08-02T06:08:47;18.90;99.90
35043;DHT22;21230;51.170;17.024;2022-08-02T06:11:23;19.00;99.90
35043;DHT22;21230;51.170;17.024;2022-08-02T06:13:54;19.00;99.90
35043;DHT22;21230;51.170;17.024;2022-08-02T06:16:20;19.10;99.90
35043;DHT22;21230;51.170;17.024;2022-08-02T06:18:46;19.20;99.90
35043;DHT22;21230;51.170;17.024;2022-08-02T06:21:13;19.20;99.90
35043;DHT22;21230;51.170;17.024;2022-08-02T06:23:41;19.30;99.90
35043;DHT22;21230;51.170;17.024;2022-08-02T06:26:07;19.40;99.90
35043;DHT22;21230;51.170;17.024;2022-08-02T06:28:36;19.50;99.90
35043;DHT22;21230;51.170;17.024;2022-08-02T06:31:01;19.60;99.90
35043;DHT22;21230;51.170;17.024;2022-08-02T06:33:27;19.80;99.90
35043;DHT22;21230;51.170;17.024;2022-08-02T06:36:05;19.90;99.90
35043;DHT22;21230;51.170;17.024;2022-08-02T06:38:34;19.90;99.90
35043;DHT22;21230;51.170;17.024;2022-08-02T06:41:05;20.10;99.90
35043;DHT22;21230;51.170;17.024;2022-08-02T06:43:53;20.10;99.90
35043;DHT22;21230;51.170;17.024;2022-08-02T06:46:19;20.00;99.90
35043;DHT22;21230;51.170;17.024;2022-08-02T06:48:45;20.10;99.90
35043;DHT22;21230;51.170;17.024;2022-08-02T06:51:11;20.20;99.90
35043;DHT22;21230;51.170;17.024;2022-08-02T06:53:37;20.30;99.90
35043;DHT22;21230;51.170;17.024;2022-08-02T06:56:02;20.40;99.90
35043;DHT22;21230;51.170;17.024;2022-08-02T06:58:28;20.50;99.90
35043;DHT22;21230;51.170;17.024;2022-08-02T07:00:57;20.50;99.90
35043;DHT22;21230;51.170;17.024;2022-08-02T07:03:22;20.40;99.90
35043;DHT22;21230;51.170;17.024;2022-08-02T07:05:50;20.40;99.90
35043;DHT22;21230;51.170;17.024;2022-08-02T07:08:16;20.30;99.90
35043;DHT22;21230;51.170;17.024;2022-08-02T07:10:42;20.50;99.90
35043;DHT22;21230;51.170;17.024;2022-08-02T07:13:07;20.60;99.90
35043;DHT22;21230;51.170;17.024;2022-08-02T07:15:33;20.70;99.90
35043;DHT22;21230;51.170;17.024;2022-08-02T07:18:00;20.80;99.90
35043;DHT22;21230;51.170;17.024;2022-08-02T07:20:25;20.70;99.90
35043;DHT22;21230;51.170;17.024;2022-08-02T07:22:51;20.80;99.90
35043;DHT22;21230;51.170;17.024;2022-08-02T07:25:17;20.70;99.90
35043;DHT22;21230;51.170;17.024;2022-08-02T07:27:42;20.80;99.90
35043;DHT22;21230;51.170;17.024;2022-08-02T07:30:08;20.70;99.90
35043;DHT22;21230;51.170;17.024;2022-08-02T07:32:34;20.80;99.90
35043;DHT22;21230;51.170;17.024;2022-08-02T07:35:00;20.80;99.90
35043;DHT22;21230;51.170;17.024;2022-08-02T07:37:27;20.70;99.90
35043;DHT22;21230;51.170;17.024;2022-08-02T07:39:53;20.80;99.90
35043;DHT22;21230;51.170;17.024;2022-08-02T07:42:19;20.90;99.90
35043;DHT22;21230;51.170;17.024;2022-08-02T07:44:45;21.00;99.90
35043;DHT22;21230;51.170;17.024;2022-08-02T07:47:10;21.10;99.90
35043;DHT22;21230;51.170;17.024;2022-08-02T07:49:36;21.20;99.90
35043;DHT22;21230;51.170;17.024;2022-08-02T07:52:02;21.40;99.90
35043;DHT22;21230;51.170;17.024;2022-08-02T07:54:29;21.40;99.90
35043;DHT22;21230;51.170;17.024;2022-08-02T07:56:54;21.50;99.90
35043;DHT22;21230;51.170;17.024;2022-08-02T07:59:20;21.70;99.90
35043;DHT22;21230;51.170;17.024;2022-08-02T08:01:47;21.80;99.90
35043;DHT22;21230;51.170;17.024;2022-08-02T08:04:16;21.80;99.90
35043;DHT22;21230;51.170;17.024;2022-08-02T08:06:42;21.80;99.90
35043;DHT22;21230;51.170;17.024;2022-08-02T08:09:09;21.80;99.90
35043;DHT22;21230;51.170;17.024;2022-08-02T08:11:34;21.80;99.90
35043;DHT22;21230;51.170;17.024;2022-08-02T08:14:00;22.00;99.90
35043;DHT22;21230;51.170;17.024;2022-08-02T08:16:26;22.00;99.90
35043;DHT22;21230;51.170;17.024;2022-08-02T08:18:53;22.30;99.90
35043;DHT22;21230;51.170;17.024;2022-08-02T08:21:19;22.20;99.90
35043;DHT22;21230;51.170;17.024;2022-08-02T08:23:45;22.00;99.90
35043;DHT22;21230;51.170;17.024;2022-08-02T08:26:10;21.90;99.90
35043;DHT22;21230;51.170;17.024;2022-08-02T08:28:36;22.00;99.90
35043;DHT22;21230;51.170;17.024;2022-08-02T08:31:02;22.00;99.90
35043;DHT22;21230;51.170;17.024;2022-08-02T08:33:28;22.10;99.90
35043;DHT22;21230;51.170;17.024;2022-08-02T08:35:54;22.10;99.90
35043;DHT22;21230;51.170;17.024;2022-08-02T08:38:19;22.20;99.90
35043;DHT22;21230;51.170;17.024;2022-08-02T08:40:47;22.20;99.90
35043;DHT22;21230;51.170;17.024;2022-08-02T08:58:57;22.40;99.90
35043;DHT22;21230;51.170;17.024;2022-08-02T09:01:24;22.60;99.90
35043;DHT22;21230;51.170;17.024;2022-08-02T09:03:49;22.50;98.50
35043;DHT22;21230;51.170;17.024;2022-08-02T09:06:15;22.40;98.70
35043;DHT22;21230;51.170;17.024;2022-08-02T09:08:44;22.50;98.30
35043;DHT22;21230;51.170;17.024;2022-08-02T09:11:14;22.50;98.00
35043;DHT22;21230;51.170;17.024;2022-08-02T09:16:48;22.70;95.50
35043;DHT22;21230;51.170;17.024;2022-08-02T09:19:25;22.70;93.10
35043;DHT22;21230;51.170;17.024;2022-08-02T09:21:58;22.80;90.90
35043;DHT22;21230;51.170;17.024;2022-08-02T09:24:28;22.90;88.30
35043;DHT22;21230;51.170;17.024;2022-08-02T09:26:53;23.00;87.60
35043;DHT22;21230;51.170;17.024;2022-08-02T09:29:22;22.80;84.80
35043;DHT22;21230;51.170;17.024;2022-08-02T09:31:48;22.60;85.90
35043;DHT22;21230;51.170;17.024;2022-08-02T09:37:28;22.80;85.30
35043;DHT22;21230;51.170;17.024;2022-08-02T09:40:05;23.00;83.70
35043;DHT22;21230;51.170;17.024;2022-08-02T09:42:34;23.10;83.50
35043;DHT22;21230;51.170;17.024;2022-08-02T09:45:00;23.00;79.40
35043;DHT22;21230;51.170;17.024;2022-08-02T09:47:26;23.00;82.00
35043;DHT22;21230;51.170;17.024;2022-08-02T09:49:53;23.20;78.50
35043;DHT22;21230;51.170;17.024;2022-08-02T09:52:26;23.40;79.50
35043;DHT22;21230;51.170;17.024;2022-08-02T09:54:52;23.40;77.00
35043;DHT22;21230;51.170;17.024;2022-08-02T09:57:28;23.50;77.70
35043;DHT22;21230;51.170;17.024;2022-08-02T09:59:54;23.60;76.20
35043;DHT22;21230;51.170;17.024;2022-08-02T10:02:21;23.40;78.70
35043;DHT22;21230;51.170;17.024;2022-08-02T10:04:47;23.40;77.20
35043;DHT22;21230;51.170;17.024;2022-08-02T10:07:13;23.40;77.40
35043;DHT22;21230;51.170;17.024;2022-08-02T10:09:58;23.50;76.40
35043;DHT22;21230;51.170;17.024;2022-08-02T10:12:27;23.80;78.40
35043;DHT22;21230;51.170;17.024;2022-08-02T10:15:02;23.70;76.00
35043;DHT22;21230;51.170;17.024;2022-08-02T10:17:28;23.60;75.40
35043;DHT22;21230;51.170;17.024;2022-08-02T10:20:03;23.50;77.00
35043;DHT22;21230;51.170;17.024;2022-08-02T10:22:40;23.40;74.30
35043;DHT22;21230;51.170;17.024;2022-08-02T10:25:08;23.20;74.80
35043;DHT22;21230;51.170;17.024;2022-08-02T10:27:34;23.30;77.10
35043;DHT22;21230;51.170;17.024;2022-08-02T10:30:00;23.50;79.10
35043;DHT22;21230;51.170;17.024;2022-08-02T10:32:28;23.90;75.00
35043;DHT22;21230;51.170;17.024;2022-08-02T10:34:55;24.00;74.20
35043;DHT22;21230;51.170;17.024;2022-08-02T10:37:32;24.00;70.70
35043;DHT22;21230;51.170;17.024;2022-08-02T10:40:00;23.90;70.40
35043;DHT22;21230;51.170;17.024;2022-08-02T10:42:42;23.70;71.30
35043;DHT22;21230;51.170;17.024;2022-08-02T10:45:09;23.60;75.30
35043;DHT22;21230;51.170;17.024;2022-08-02T10:47:34;23.70;75.90
35043;DHT22;21230;51.170;17.024;2022-08-02T10:50:01;23.90;75.80
35043;DHT22;21230;51.170;17.024;2022-08-02T10:52:28;23.70;70.40
35043;DHT22;21230;51.170;17.024;2022-08-02T10:57:24;23.70;73.00
35043;DHT22;21230;51.170;17.024;2022-08-02T10:59:51;23.90;70.80
35043;DHT22;21230;51.170;17.024;2022-08-02T11:05:04;24.10;69.60
35043;DHT22;21230;51.170;17.024;2022-08-02T11:07:32;24.30;69.30
35043;DHT22;21230;51.170;17.024;2022-08-02T11:09:58;24.50;68.60
35043;DHT22;21230;51.170;17.024;2022-08-02T11:12:24;24.70;70.00
35043;DHT22;21230;51.170;17.024;2022-08-02T11:15:02;24.80;68.30
35043;DHT22;21230;51.170;17.024;2022-08-02T11:17:50;24.80;64.90
35043;DHT22;21230;51.170;17.024;2022-08-02T11:20:14;24.90;66.90
35043;DHT22;21230;51.170;17.024;2022-08-02T11:22:42;24.40;68.50
35043;DHT22;21230;51.170;17.024;2022-08-02T11:27:57;24.20;67.70
35043;DHT22;21230;51.170;17.024;2022-08-02T11:30:30;24.40;65.30
35043;DHT22;21230;51.170;17.024;2022-08-02T11:33:00;24.50;62.40
35043;DHT22;21230;51.170;17.024;2022-08-02T11:35:38;24.50;62.10
35043;DHT22;21230;51.170;17.024;2022-08-02T11:38:18;24.60;61.60
35043;DHT22;21230;51.170;17.024;2022-08-02T11:40:51;24.70;64.50
35043;DHT22;21230;51.170;17.024;2022-08-02T11:43:23;24.80;64.20
35043;DHT22;21230;51.170;17.024;2022-08-02T11:45:56;24.70;59.90
35043;DHT22;21230;51.170;17.024;2022-08-02T11:48:37;24.60;61.50
35043;DHT22;21230;51.170;17.024;2022-08-02T11:53:49;24.90;67.40
35043;DHT22;21230;51.170;17.024;2022-08-02T11:56:25;25.20;65.80
35043;DHT22;21230;51.170;17.024;2022-08-02T11:59:06;25.40;61.70
35043;DHT22;21230;51.170;17.024;2022-08-02T12:01:37;25.40;61.90
35043;DHT22;21230;51.170;17.024;2022-08-02T12:04:06;25.20;58.90
35043;DHT22;21230;51.170;17.024;2022-08-02T12:06:34;25.10;60.00
35043;DHT22;21230;51.170;17.024;2022-08-02T12:11:32;25.00;61.40
35043;DHT22;21230;51.170;17.024;2022-08-02T12:14:08;25.00;58.80
35043;DHT22;21230;51.170;17.024;2022-08-02T12:16:50;24.70;59.00
35043;DHT22;21230;51.170;17.024;2022-08-02T12:19:35;24.80;61.60
35043;DHT22;21230;51.170;17.024;2022-08-02T12:22:08;25.00;58.70
35043;DHT22;21230;51.170;17.024;2022-08-02T12:24:38;25.00;58.00
35043;DHT22;21230;51.170;17.024;2022-08-02T12:27:08;25.20;57.00
35043;DHT22;21230;51.170;17.024;2022-08-02T12:31:59;25.30;58.20
35043;DHT22;21230;51.170;17.024;2022-08-02T12:34:30;25.40;61.80
35043;DHT22;21230;51.170;17.024;2022-08-02T12:37:03;25.70;57.00
35043;DHT22;21230;51.170;17.024;2022-08-02T12:39:43;25.80;57.00
35043;DHT22;21230;51.170;17.024;2022-08-02T12:42:11;26.00;55.80
35043;DHT22;21230;51.170;17.024;2022-08-02T12:44:37;26.00;55.40
35043;DHT22;21230;51.170;17.024;2022-08-02T12:47:06;25.90;55.90
35043;DHT22;21230;51.170;17.024;2022-08-02T12:49:34;26.10;55.20
35043;DHT22;21230;51.170;17.024;2022-08-02T12:51:59;26.00;57.40
35043;DHT22;21230;51.170;17.024;2022-08-02T12:54:46;26.00;57.30
35043;DHT22;21230;51.170;17.024;2022-08-02T12:57:14;25.90;56.60
35043;DHT22;21230;51.170;17.024;2022-08-02T12:59:40;25.70;55.80
35043;DHT22;21230;51.170;17.024;2022-08-02T13:02:07;25.50;59.00
35043;DHT22;21230;51.170;17.024;2022-08-02T13:04:33;25.60;59.10
35043;DHT22;21230;51.170;17.024;2022-08-02T13:07:05;25.50;57.90
35043;DHT22;21230;51.170;17.024;2022-08-02T13:09:36;25.20;58.10
35043;DHT22;21230;51.170;17.024;2022-08-02T13:12:30;25.20;58.10
35043;DHT22;21230;51.170;17.024;2022-08-02T13:27:59;25.40;59.10
35043;DHT22;21230;51.170;17.024;2022-08-02T13:30:32;25.60;59.80
35043;DHT22;21230;51.170;17.024;2022-08-02T13:32:57;25.70;57.60
35043;DHT22;21230;51.170;17.024;2022-08-02T13:35:23;25.60;56.40
35043;DHT22;21230;51.170;17.024;2022-08-02T13:37:49;25.60;56.70
35043;DHT22;21230;51.170;17.024;2022-08-02T13:40:15;25.60;56.10
35043;DHT22;21230;51.170;17.024;2022-08-02T13:42:40;25.40;58.00
35043;DHT22;21230;51.170;17.024;2022-08-02T13:45:09;25.30;57.30
35043;DHT22;21230;51.170;17.024;2022-08-02T13:51:23;25.50;58.70
35043;DHT22;21230;51.170;17.024;2022-08-02T13:54:10;25.70;55.70
35043;DHT22;21230;51.170;17.024;2022-08-02T13:56:40;25.60;56.80
35043;DHT22;21230;51.170;17.024;2022-08-02T13:59:06;25.70;57.30
35043;DHT22;21230;51.170;17.024;2022-08-02T14:01:32;25.70;57.10
35043;DHT22;21230;51.170;17.024;2022-08-02T14:03:59;25.50;56.00
35043;DHT22;21230;51.170;17.024;2022-08-02T14:06:27;25.10;56.00
35043;DHT22;21230;51.170;17.024;2022-08-02T14:09:33;25.00;56.50
35043;DHT22;21230;51.170;17.024;2022-08-02T14:12:03;25.10;56.50
35043;DHT22;21230;51.170;17.024;2022-08-02T14:14:29;25.20;56.80
35043;DHT22;21230;51.170;17.024;2022-08-02T14:16:55;25.30;58.10
35043;DHT22;21230;51.170;17.024;2022-08-02T14:19:21;25.40;60.60
35043;DHT22;21230;51.170;17.024;2022-08-02T14:48:42;26.10;57.10
35043;DHT22;21230;51.170;17.024;2022-08-02T14:51:07;26.00;57.60
35043;DHT22;21230;51.170;17.024;2022-08-02T14:53:33;25.90;55.50
35043;DHT22;21230;51.170;17.024;2022-08-02T14:56:04;25.70;56.20
35043;DHT22;21230;51.170;17.024;2022-08-02T14:58:39;25.60;57.80
35043;DHT22;21230;51.170;17.024;2022-08-02T15:01:05;25.70;56.10
35043;DHT22;21230;51.170;17.024;2022-08-02T15:03:33;25.70;54.90
35043;DHT22;21230;51.170;17.024;2022-08-02T15:30:25;26.70;53.70
35043;DHT22;21230;51.170;17.024;2022-08-02T15:33:21;26.70;52.20
35043;DHT22;21230;51.170;17.024;2022-08-02T15:35:50;26.60;52.10
35043;DHT22;21230;51.170;17.024;2022-08-02T15:50:34;26.50;50.90
35043;DHT22;21230;51.170;17.024;2022-08-02T15:53:00;26.60;52.30
35043;DHT22;21230;51.170;17.024;2022-08-02T15:55:28;26.50;50.70
35043;DHT22;21230;51.170;17.024;2022-08-02T15:58:04;26.30;51.90
35043;DHT22;21230;51.170;17.024;2022-08-02T16:03:41;25.90;53.10
35043;DHT22;21230;51.170;17.024;2022-08-02T16:06:07;26.00;53.50
35043;DHT22;21230;51.170;17.024;2022-08-02T16:11:39;26.30;52.90
35043;DHT22;21230;51.170;17.024;2022-08-02T16:14:05;26.30;53.70
35043;DHT22;21230;51.170;17.024;2022-08-02T16:16:43;26.30;54.50
35043;DHT22;21230;51.170;17.024;2022-08-02T16:24:58;26.50;51.40
35043;DHT22;21230;51.170;17.024;2022-08-02T16:27:48;26.60;51.00
35043;DHT22;21230;51.170;17.024;2022-08-02T16:30:58;26.60;50.60
35043;DHT22;21230;51.170;17.024;2022-08-02T16:33:57;26.60;49.50
35043;DHT22;21230;51.170;17.024;2022-08-02T16:36:16;26.70;49.90
35043;DHT22;21230;51.170;17.024;2022-08-02T16:41:57;26.80;52.40
35043;DHT22;21230;51.170;17.024;2022-08-02T16:44:23;26.80;52.30
35043;DHT22;21230;51.170;17.024;2022-08-02T16:46:55;26.80;52.40
35043;DHT22;21230;51.170;17.024;2022-08-02T16:59:58;26.70;53.00
35043;DHT22;21230;51.170;17.024;2022-08-02T17:02:29;26.70;52.70
35043;DHT22;21230;51.170;17.024;2022-08-02T17:05:03;26.80;52.80
35043;DHT22;21230;51.170;17.024;2022-08-02T17:07:46;26.80;51.40
35043;DHT22;21230;51.170;17.024;2022-08-02T17:10:38;26.90;51.70
35043;DHT22;21230;51.170;17.024;2022-08-02T17:13:10;26.90;51.50
35043;DHT22;21230;51.170;17.024;2022-08-02T17:15:49;26.90;52.30
35043;DHT22;21230;51.170;17.024;2022-08-02T17:18:27;27.00;52.50
35043;DHT22;21230;51.170;17.024;2022-08-02T17:20:55;27.00;51.30
35043;DHT22;21230;51.170;17.024;2022-08-02T17:23:43;27.10;52.10
35043;DHT22;21230;51.170;17.024;2022-08-02T17:26:14;27.10;52.20
35043;DHT22;21230;51.170;17.024;2022-08-02T17:28:42;27.10;52.40
35043;DHT22;21230;51.170;17.024;2022-08-02T17:31:25;27.10;52.70
35043;DHT22;21230;51.170;17.024;2022-08-02T17:34:01;27.20;52.10
35043;DHT22;21230;51.170;17.024;2022-08-02T17:36:34;27.30;50.80
35043;DHT22;21230;51.170;17.024;2022-08-02T18:09:41;25.20;61.50
35043;DHT22;21230;51.170;17.024;2022-08-02T18:12:07;25.00;64.10
35043;DHT22;21230;51.170;17.024;2022-08-02T18:14:37;24.80;66.30
35043;DHT22;21230;51.170;17.024;2022-08-02T18:17:05;24.80;65.80
35043;DHT22;21230;51.170;17.024;2022-08-02T18:19:33;24.70;65.00
35043;DHT22;21230;51.170;17.024;2022-08-02T18:21:58;24.60;65.00
35043;DHT22;21230;51.170;17.024;2022-08-02T18:24:27;24.60;65.20
35043;DHT22;21230;51.170;17.024;2022-08-02T18:26:52;24.50;66.70
35043;DHT22;21230;51.170;17.024;2022-08-02T18:29:21;24.40;68.50
35043;DHT22;21230;51.170;17.024;2022-08-02T18:31:46;24.30;70.50
35043;DHT22;21230;51.170;17.024;2022-08-02T18:34:12;24.10;72.20
35043;DHT22;21230;51.170;17.024;2022-08-02T18:36:37;24.10;72.80